Flight Track Log - Related Links

Times and Time Zones

All times are in EDT time to prevent confusion due to time zone crossing. See the CTL15 flight status page for this flight to view local times or setup timezone preferences in your user account.

Time Position Orientation Groundspeed Altitude Reporting Facility
EDT Latitude Longitude Course Direction KTS MPH feet Rate Location/Type
Thu 07:41:46 PM 39.5811 -84.2050 43° Northeast 132 152 1,700  Level Indianapolis Center
Thu 07:42:16 PM 39.5972 -84.1853 43° Northeast 143 165 2,100 692 Climbing Indianapolis Center
Thu 07:43:04 PM 39.6192 -84.1544 47° Northeast 150 173 2,600 606 Climbing Indianapolis Center
Thu 07:44:05 PM 39.6519 -84.1119 45° Northeast 157 181 3,200 537 Climbing Indianapolis Center
Thu 07:45:07 PM 39.6853 -84.0686 45° Northeast 163 188 3,700 444 Climbing Indianapolis Center
Thu 07:46:20 PM 39.7258 -84.0125 47° Northeast 166 191 4,200 439 Climbing Indianapolis Center
Thu 07:47:10 PM 39.7481 -83.9786 50° Northeast 166 191 4,600 545 Climbing Indianapolis Center
Thu 07:48:21 PM 39.7872 -83.9253 46° Northeast 163 188 5,300 537 Climbing Indianapolis Center
Thu 07:49:13 PM 39.8089 -83.8894 52° Northeast 163 188 5,700 474 Climbing Indianapolis Center
Thu 07:50:15 PM 39.8375 -83.8456 50° Northeast 161 185 6,200 484 Climbing Indianapolis Center
Thu 07:51:17 PM 39.8753 -83.7956 45° Northeast 162 186 6,700 390 Climbing Indianapolis Center
Thu 07:52:18 PM 39.9103 -83.7533 43° Northeast 166 191 7,000 141 Climbing Indianapolis Center
Thu 07:53:25 PM 39.9522 -83.7069 40° Northeast 183 211 7,000 -49 Level Indianapolis Center
Thu 07:54:21 PM 39.9897 -83.6653 40° Northeast 184 212 6,900  Descending Indianapolis Center
Thu 07:55:21 PM 40.0278 -83.6211 42° Northeast 188 216 7,000 52 Climbing Indianapolis Center
Thu 07:56:16 PM 40.0622 -83.5819 41° Northeast 183 211 7,000  Level Indianapolis Center
Thu 07:57:26 PM 40.1056 -83.5292 43° Northeast 184 212 7,000  Level Indianapolis Center
Thu 07:58:17 PM 40.1400 -83.4878 43° Northeast 185 213 7,000  Level Indianapolis Center
Thu 07:59:18 PM 40.1789 -83.4433 41° Northeast 185 213 7,000  Level Indianapolis Center
Thu 08:00:19 PM 40.2156 -83.3989 43° Northeast 182 209 7,000  Level Indianapolis Center
Thu 08:01:19 PM 40.2544 -83.3542 41° Northeast 180 207 7,000  Level Indianapolis Center
Thu 08:02:34 PM 40.2969 -83.3058 41° Northeast 180 207 7,000 -44 Level Indianapolis Center
Thu 08:03:36 PM 40.3306 -83.2594 46° Northeast 175 201 6,900 -49 Descending Indianapolis Center
Thu 08:04:37 PM 40.3661 -83.1975 53° Northeast 180 207 6,900 49 Level Indianapolis Center
Thu 08:05:39 PM 40.3972 -83.1442 53° Northeast 182 209 7,000 48 Climbing Indianapolis Center
Thu 08:06:41 PM 40.4281 -83.0931 52° Northeast 178 205 7,000  Level Indianapolis Center
Thu 08:07:42 PM 40.4589 -83.0408 52° Northeast 178 205 7,000  Level Indianapolis Center
Thu 08:08:44 PM 40.4886 -82.9886 53° Northeast 178 205 7,000  Level Indianapolis Center
Thu 08:09:46 PM 40.5178 -82.9433 50° Northeast 173 199 7,000  Level Indianapolis Center
Thu 08:10:47 PM 40.5544 -82.8833 51° Northeast 178 205 7,000  Level Indianapolis Center
Thu 08:11:49 PM 40.5847 -82.8308 53° Northeast 178 205 7,000  Level Indianapolis Center
Thu 08:12:51 PM 40.6153 -82.7794 52° Northeast 177 204 7,000  Level Indianapolis Center
Thu 08:13:52 PM 40.6444 -82.7258 54° Northeast 178 205 7,000  Level Indianapolis Center
Thu 08:14:54 PM 40.6750 -82.6764 51° Northeast 174 200 7,000  Level Indianapolis Center
Thu 08:15:56 PM 40.7050 -82.6244 53° Northeast 176 203 7,000  Level Indianapolis Center
Thu 08:16:58 PM 40.7342 -82.5719 54° Northeast 176 203 7,000  Level Indianapolis Center
Thu 08:17:29 PM 40.7528 -82.5483 44° Northeast 175 201 7,000 -330 Level Cleveland Center
Thu 08:18:29 PM 40.7828 -82.4917 55° Northeast 187 215 6,500 -500 Descending Cleveland Center

Login

Don't have an account? Register now (free) for customized features, flight alerts, and more!